createdAt,value
2022-11-12T00:02:47.672Z,7.00
2022-11-12T00:06:29.616Z,6.90
2022-11-12T00:10:12.148Z,6.80
2022-11-12T00:13:55.812Z,6.70
2022-11-12T00:17:39.236Z,6.70
2022-11-12T00:21:23.624Z,6.70
2022-11-12T00:25:07.461Z,6.80
2022-11-12T00:28:53.221Z,6.70
2022-11-12T00:32:38.608Z,6.70
2022-11-12T00:36:24.128Z,6.70
2022-11-12T00:40:08.393Z,6.60
2022-11-12T00:43:50.699Z,6.50
2022-11-12T00:47:33.106Z,6.50
2022-11-12T00:51:16.872Z,6.50
2022-11-12T00:54:59.386Z,6.50
2022-11-12T00:58:41.805Z,6.50
2022-11-12T01:02:24.157Z,6.30
2022-11-12T01:06:07.274Z,6.20
2022-11-12T01:09:50.635Z,6.20
2022-11-12T01:13:32.563Z,6.20
2022-11-12T01:17:14.597Z,6.20
2022-11-12T01:20:56.724Z,6.20
2022-11-12T01:24:39.231Z,6.10
2022-11-12T01:28:22.999Z,6.10
2022-11-12T01:32:05.664Z,6.00
2022-11-12T01:35:47.712Z,6.00
2022-11-12T01:39:29.740Z,5.90
2022-11-12T01:43:14.069Z,6.00
2022-11-12T01:47:05.459Z,5.90
2022-11-12T01:50:48.005Z,6.00
2022-11-12T01:54:31.820Z,5.90
2022-11-12T01:58:19.504Z,5.80
2022-11-12T02:02:03.313Z,5.70
2022-11-12T02:05:49.190Z,5.70
2022-11-12T02:09:32.880Z,5.80
2022-11-12T02:13:32.301Z,5.70
2022-11-12T02:17:15.815Z,5.70
2022-11-12T02:21:00.171Z,5.70
2022-11-12T02:24:43.748Z,5.60
2022-11-12T02:28:26.634Z,5.60
2022-11-12T02:32:09.218Z,5.60
2022-11-12T02:35:51.653Z,5.60
2022-11-12T02:39:34.031Z,5.60
2022-11-12T02:43:17.530Z,5.50
2022-11-12T02:46:59.714Z,5.50
2022-11-12T02:50:41.687Z,5.50
2022-11-12T02:54:23.990Z,5.50
2022-11-12T02:58:06.129Z,5.40
2022-11-12T03:01:49.765Z,5.40
2022-11-12T03:05:33.797Z,5.30
2022-11-12T03:09:16.387Z,5.40
2022-11-12T03:12:59.987Z,5.40
2022-11-12T03:16:42.238Z,5.40
2022-11-12T03:20:26.508Z,5.40
2022-11-12T03:24:08.776Z,5.40
2022-11-12T03:27:57.080Z,5.30
2022-11-12T03:31:39.396Z,5.30
2022-11-12T03:35:21.486Z,5.30
2022-11-12T03:39:05.072Z,5.20
2022-11-12T03:42:47.968Z,5.20
2022-11-12T03:46:30.350Z,5.10
2022-11-12T03:50:13.163Z,5.10
2022-11-12T03:53:55.047Z,5.00
2022-11-12T03:57:38.574Z,4.90
2022-11-12T04:01:20.679Z,4.90
2022-11-12T04:05:20.458Z,4.90
2022-11-12T04:09:02.855Z,4.90
2022-11-12T04:13:03.816Z,4.90
2022-11-12T04:17:03.975Z,5.00
2022-11-12T04:21:03.837Z,5.00
2022-11-12T04:25:03.844Z,4.90
2022-11-12T04:29:01.284Z,4.90
2022-11-12T04:32:50.624Z,4.80
2022-11-12T04:36:32.655Z,4.70
2022-11-12T04:40:34.139Z,4.70
2022-11-12T04:44:35.441Z,4.60
2022-11-12T04:48:17.813Z,4.50
2022-11-12T04:52:05.872Z,4.60
2022-11-12T04:55:51.142Z,4.60
2022-11-12T04:59:35.165Z,4.60
2022-11-12T05:03:17.597Z,4.60
2022-11-12T05:07:00.761Z,4.50
2022-11-12T05:10:42.839Z,4.60
2022-11-12T05:14:25.881Z,4.70
2022-11-12T05:18:09.401Z,4.70
2022-11-12T05:22:07.492Z,4.70
2022-11-12T05:25:53.148Z,4.70
2022-11-12T05:29:35.250Z,4.70
2022-11-12T05:33:18.915Z,4.70
2022-11-12T05:37:01.189Z,4.80
2022-11-12T05:40:45.939Z,4.70
2022-11-12T05:44:28.420Z,4.60
2022-11-12T05:48:10.892Z,4.60
2022-11-12T05:51:54.463Z,4.60
2022-11-12T05:55:37.189Z,4.50
2022-11-12T05:59:19.741Z,4.50
2022-11-12T06:03:01.612Z,4.60
2022-11-12T06:06:44.984Z,4.60
2022-11-12T06:10:29.069Z,4.60
2022-11-12T06:14:11.299Z,4.60
2022-11-12T06:17:53.266Z,4.60
2022-11-12T06:21:35.668Z,4.50
2022-11-12T06:25:18.237Z,4.50
2022-11-12T06:29:01.706Z,4.40
2022-11-12T06:32:46.557Z,4.40
2022-11-12T06:36:28.702Z,4.30
2022-11-12T06:40:11.303Z,4.30
2022-11-12T06:43:53.373Z,4.30
2022-11-12T06:47:37.134Z,4.30
2022-11-12T06:51:21.056Z,4.40
2022-11-12T06:55:03.468Z,4.40
2022-11-12T06:58:45.523Z,4.50
2022-11-12T07:02:27.846Z,4.70
2022-11-12T07:06:12.811Z,4.70
2022-11-12T07:09:54.839Z,4.90
2022-11-12T07:13:38.167Z,4.90
2022-11-12T07:17:20.509Z,5.00
2022-11-12T07:21:04.681Z,5.10
2022-11-12T07:24:47.952Z,5.10
2022-11-12T07:28:30.673Z,5.20
2022-11-12T07:32:13.265Z,5.30
2022-11-12T07:35:59.922Z,5.40
2022-11-12T07:39:41.962Z,5.50
2022-11-12T07:43:25.391Z,5.70
2022-11-12T07:47:07.805Z,5.80
2022-11-12T07:50:49.982Z,6.00
2022-11-12T07:54:32.165Z,6.20
2022-11-12T07:58:14.549Z,6.40
2022-11-12T08:01:58.134Z,6.60
2022-11-12T08:05:40.446Z,7.30
2022-11-12T08:09:22.740Z,9.10
2022-11-12T08:13:05.181Z,10.80
2022-11-12T08:16:47.608Z,12.40
2022-11-12T08:20:31.216Z,13.40
2022-11-12T08:24:13.497Z,14.00
2022-11-12T08:27:59.167Z,14.40
2022-11-12T08:31:41.310Z,14.60
2022-11-12T08:35:23.113Z,14.70
2022-11-12T08:39:07.260Z,15.00
2022-11-12T08:42:49.577Z,15.90
2022-11-12T08:46:31.529Z,17.80
2022-11-12T08:50:13.935Z,19.40
2022-11-12T08:53:56.361Z,20.30
2022-11-12T08:57:42.901Z,19.10
2022-11-12T09:01:25.349Z,19.10
2022-11-12T09:05:08.293Z,17.80
2022-11-12T09:08:50.844Z,15.20
2022-11-12T09:12:33.213Z,13.10
2022-11-12T09:16:18.089Z,12.30
2022-11-12T09:20:00.534Z,11.50
2022-11-12T09:23:42.808Z,10.90
2022-11-12T09:27:27.710Z,10.70
2022-11-12T09:31:10.272Z,10.50
2022-11-12T09:34:53.795Z,10.40
2022-11-12T09:38:35.840Z,10.00
2022-11-12T09:42:20.787Z,9.90
2022-11-12T09:46:26.773Z,10.20
2022-11-12T09:50:21.454Z,10.10
2022-11-12T09:54:13.869Z,9.90
2022-11-12T09:57:56.179Z,10.10
2022-11-12T10:01:49.230Z,10.10
2022-11-12T10:05:35.898Z,10.20
2022-11-12T10:09:24.066Z,10.10
2022-11-12T10:13:18.268Z,10.70
2022-11-12T10:17:09.765Z,11.40
2022-11-12T10:20:57.166Z,12.20
2022-11-12T10:24:41.121Z,12.80
2022-11-12T10:28:37.302Z,13.80
2022-11-12T10:32:26.786Z,14.80
2022-11-12T10:36:22.367Z,15.10
2022-11-12T10:40:28.552Z,14.70
2022-11-12T10:44:15.705Z,13.10
2022-11-12T10:47:58.382Z,12.40
2022-11-12T10:51:42.628Z,11.80
2022-11-12T10:55:26.656Z,11.40
2022-11-12T10:59:16.720Z,11.30
2022-11-12T11:02:59.824Z,11.30
2022-11-12T11:06:43.413Z,11.40
2022-11-12T11:10:28.483Z,11.30
2022-11-12T11:14:27.052Z,11.30
2022-11-12T11:18:12.129Z,11.60
2022-11-12T11:22:04.413Z,11.70
2022-11-12T11:25:51.110Z,11.70
2022-11-12T11:29:57.376Z,12.00
2022-11-12T11:33:46.974Z,12.10
2022-11-12T11:37:33.416Z,12.00
2022-11-12T11:41:38.551Z,11.60
2022-11-12T11:45:26.837Z,11.50
2022-11-12T11:49:43.462Z,11.60
2022-11-12T11:53:36.089Z,11.90
2022-11-12T11:57:23.410Z,12.10
2022-11-12T12:01:12.031Z,12.30
2022-11-12T12:05:05.008Z,12.00
2022-11-12T12:09:07.700Z,11.70
2022-11-12T12:12:58.662Z,11.90
2022-11-12T12:16:53.170Z,12.00
2022-11-12T12:20:43.348Z,11.90
2022-11-12T12:24:30.855Z,11.90
2022-11-12T12:28:18.739Z,11.80
2022-11-12T12:32:07.874Z,12.10
2022-11-12T12:35:55.061Z,12.10
2022-11-12T12:39:48.090Z,11.90
2022-11-12T12:43:37.573Z,12.00
2022-11-12T12:47:21.579Z,12.00
2022-11-12T12:51:03.847Z,12.10
2022-11-12T12:55:00.036Z,12.10
2022-11-12T12:58:44.912Z,12.20
2022-11-12T13:02:27.176Z,12.40
2022-11-12T13:06:15.958Z,12.60
2022-11-12T13:10:31.687Z,12.90
2022-11-12T13:14:51.124Z,12.70
2022-11-12T13:19:01.867Z,12.60
2022-11-12T13:22:52.501Z,12.70
2022-11-12T13:26:49.145Z,12.70
2022-11-12T13:30:58.529Z,12.80
2022-11-12T13:34:42.609Z,12.70
2022-11-12T13:38:25.534Z,12.70
2022-11-12T13:42:32.114Z,12.70
2022-11-12T13:46:28.147Z,12.80
2022-11-12T13:50:17.532Z,12.90
2022-11-12T13:53:59.811Z,12.80
2022-11-12T13:57:42.071Z,12.60
2022-11-12T14:01:25.284Z,12.60
2022-11-12T14:05:16.696Z,12.40
2022-11-12T14:09:16.889Z,12.60
2022-11-12T14:13:20.752Z,12.50
2022-11-12T14:17:22.260Z,12.40
2022-11-12T14:21:12.101Z,12.50
2022-11-12T14:25:00.659Z,12.40
2022-11-12T14:28:43.187Z,12.40
2022-11-12T14:32:25.471Z,12.30
2022-11-12T14:36:14.355Z,12.20
2022-11-12T14:39:56.497Z,12.30
2022-11-12T14:43:42.560Z,12.20
2022-11-12T14:47:24.876Z,12.20
2022-11-12T14:51:12.288Z,12.10
2022-11-12T14:54:57.373Z,12.10
2022-11-12T14:58:40.944Z,12.10
2022-11-12T15:02:36.868Z,12.00
2022-11-12T15:06:33.797Z,11.90
2022-11-12T15:10:34.897Z,11.80
2022-11-12T15:14:23.974Z,11.80
2022-11-12T15:18:08.311Z,11.80
2022-11-12T15:21:53.586Z,11.70
2022-11-12T15:25:35.832Z,11.70
2022-11-12T15:29:33.347Z,11.50
2022-11-12T15:33:22.300Z,11.40
2022-11-12T15:37:08.356Z,11.30
2022-11-12T15:40:57.550Z,11.20
2022-11-12T15:44:40.457Z,11.00
2022-11-12T15:48:23.397Z,11.00
2022-11-12T15:52:07.335Z,11.00
2022-11-12T15:55:51.038Z,10.90
2022-11-12T15:59:33.373Z,10.80
2022-11-12T16:03:16.944Z,10.70
2022-11-12T16:07:00.460Z,10.60
2022-11-12T16:10:46.287Z,10.60
2022-11-12T16:14:29.080Z,10.50
2022-11-12T16:18:11.776Z,10.40
2022-11-12T16:21:54.229Z,10.30
2022-11-12T16:25:39.306Z,10.30
2022-11-12T16:29:22.866Z,10.20
2022-11-12T16:33:05.251Z,10.00
2022-11-12T16:36:48.788Z,9.90
2022-11-12T16:40:31.903Z,9.70
2022-11-12T16:44:15.620Z,9.70
2022-11-12T16:47:59.271Z,9.60
2022-11-12T16:51:41.881Z,9.60
2022-11-12T16:55:23.805Z,9.50
2022-11-12T16:59:06.508Z,9.50
2022-11-12T17:02:53.113Z,9.40
2022-11-12T17:06:39.197Z,9.40
2022-11-12T17:10:23.800Z,9.30
2022-11-12T17:14:07.541Z,9.20
2022-11-12T17:17:49.876Z,9.20
2022-11-12T17:21:32.400Z,9.20
2022-11-12T17:25:15.716Z,9.10
2022-11-12T17:29:03.667Z,9.00
2022-11-12T17:32:50.029Z,9.00
2022-11-12T17:36:32.134Z,8.90
2022-11-12T17:40:16.254Z,8.90
2022-11-12T17:43:59.806Z,8.80
2022-11-12T17:47:41.861Z,8.70
2022-11-12T17:51:25.933Z,8.60
2022-11-12T17:55:08.994Z,8.50
2022-11-12T17:58:53.109Z,8.50
2022-11-12T18:02:35.039Z,8.50
2022-11-12T18:06:19.001Z,8.40
2022-11-12T18:10:01.176Z,8.40
2022-11-12T18:13:43.350Z,8.40
2022-11-12T18:17:27.240Z,8.30
2022-11-12T18:21:09.488Z,8.30
2022-11-12T18:24:52.759Z,8.20
2022-11-12T18:28:35.091Z,8.20
2022-11-12T18:32:17.391Z,8.30
2022-11-12T18:36:06.166Z,8.30
2022-11-12T18:39:48.382Z,8.30
2022-11-12T18:43:30.928Z,8.30
2022-11-12T18:47:13.126Z,8.30
2022-11-12T18:50:58.865Z,8.20
2022-11-12T18:54:42.670Z,8.20
2022-11-12T18:58:26.618Z,8.20
2022-11-12T19:02:11.591Z,8.20
2022-11-12T19:05:58.783Z,8.20
2022-11-12T19:09:42.606Z,8.20
2022-11-12T19:13:24.766Z,8.10
2022-11-12T19:17:07.215Z,8.20
2022-11-12T19:20:50.343Z,8.20
2022-11-12T19:24:32.317Z,8.20
2022-11-12T19:28:16.014Z,8.20
2022-11-12T19:31:58.482Z,8.10
2022-11-12T19:35:41.221Z,8.10
2022-11-12T19:39:23.646Z,8.00
2022-11-12T19:43:05.625Z,7.90
2022-11-12T19:46:49.198Z,7.90
2022-11-12T19:50:34.028Z,7.80
2022-11-12T19:54:16.272Z,7.80
2022-11-12T19:57:58.236Z,7.80
2022-11-12T20:01:40.759Z,7.80
2022-11-12T20:05:24.671Z,7.80
2022-11-12T20:09:08.783Z,7.70
2022-11-12T20:12:50.917Z,7.80
2022-11-12T20:16:33.395Z,7.80
2022-11-12T20:20:15.511Z,7.80
2022-11-12T20:23:58.996Z,7.80
2022-11-12T20:27:41.218Z,7.80
2022-11-12T20:31:23.591Z,7.60
2022-11-12T20:35:13.279Z,7.60
2022-11-12T20:39:00.928Z,7.50
2022-11-12T20:42:43.786Z,7.60
2022-11-12T20:46:26.781Z,7.50
2022-11-12T20:50:09.467Z,7.40
2022-11-12T20:53:58.716Z,7.30
2022-11-12T20:57:43.729Z,7.30
2022-11-12T21:01:27.829Z,7.30
2022-11-12T21:05:10.369Z,7.30
2022-11-12T21:08:53.258Z,7.20
2022-11-12T21:12:35.794Z,7.20
2022-11-12T21:16:19.350Z,7.10
2022-11-12T21:20:01.489Z,7.10
2022-11-12T21:23:44.995Z,7.20
2022-11-12T21:27:27.119Z,7.10
2022-11-12T21:31:11.383Z,7.10
2022-11-12T21:34:55.727Z,7.00
2022-11-12T21:38:37.847Z,6.90
2022-11-12T21:42:19.935Z,6.90
2022-11-12T21:46:02.310Z,6.90
2022-11-12T21:49:44.782Z,6.90
2022-11-12T21:53:28.305Z,6.90
2022-11-12T21:57:13.697Z,6.90
2022-11-12T22:01:07.651Z,6.90
2022-11-12T22:04:50.041Z,6.80
2022-11-12T22:08:33.548Z,6.80
2022-11-12T22:12:15.819Z,6.80
2022-11-12T22:15:58.547Z,6.70
2022-11-12T22:19:40.991Z,6.70
2022-11-12T22:23:23.337Z,6.70
2022-11-12T22:27:06.604Z,6.80
2022-11-12T22:30:48.831Z,6.80
2022-11-12T22:34:30.759Z,6.80
2022-11-12T22:38:12.866Z,6.70
2022-11-12T22:41:54.696Z,6.70
2022-11-12T22:45:38.160Z,6.70
2022-11-12T22:49:20.684Z,6.70
2022-11-12T22:53:02.856Z,6.70
2022-11-12T22:56:45.211Z,6.80
2022-11-12T23:00:32.881Z,6.80
2022-11-12T23:04:16.491Z,6.80
2022-11-12T23:07:59.725Z,6.70
2022-11-12T23:11:41.920Z,6.70
2022-11-12T23:15:24.139Z,6.70
2022-11-12T23:19:06.819Z,6.60
2022-11-12T23:22:51.054Z,6.60
2022-11-12T23:26:33.534Z,6.60
2022-11-12T23:30:15.830Z,6.50
2022-11-12T23:34:00.037Z,6.50
2022-11-12T23:37:41.845Z,6.50
2022-11-12T23:41:27.044Z,6.50
2022-11-12T23:45:10.741Z,6.50
2022-11-12T23:48:53.100Z,6.50
2022-11-12T23:52:35.207Z,6.40
2022-11-12T23:56:19.205Z,6.40
